createdAt,value
2022-10-14T00:03:42.827Z,96
2022-10-14T00:08:42.743Z,96
2022-10-14T00:13:42.436Z,96
2022-10-14T00:18:42.077Z,96
2022-10-14T00:23:41.257Z,96
2022-10-14T00:28:40.753Z,96
2022-10-14T00:33:40.003Z,96
2022-10-14T00:38:39.553Z,96
2022-10-14T00:43:40.376Z,96
2022-10-14T00:48:37.480Z,96
2022-10-14T00:53:37.136Z,95
2022-10-14T00:58:37.203Z,95
2022-10-14T01:03:37.240Z,95
2022-10-14T01:08:35.262Z,95
2022-10-14T01:13:35.500Z,95
2022-10-14T01:18:34.051Z,95
2022-10-14T01:23:35.110Z,96
2022-10-14T01:28:32.445Z,96
2022-10-14T01:33:31.971Z,96
2022-10-14T01:38:31.144Z,96
2022-10-14T01:43:30.830Z,96
2022-10-14T01:48:29.141Z,96
2022-10-14T01:53:28.707Z,97
2022-10-14T01:58:28.365Z,97
2022-10-14T01:59:50.017Z,97
2022-10-14T02:04:49.373Z,97
2022-10-14T02:09:48.913Z,97
2022-10-14T02:14:49.475Z,97
2022-10-14T02:19:47.421Z,97
2022-10-14T02:24:48.310Z,97
2022-10-14T02:29:45.520Z,97
2022-10-14T02:34:45.376Z,97
2022-10-14T02:39:45.233Z,97
2022-10-14T02:44:45.377Z,97
2022-10-14T02:49:44.718Z,97
2022-10-14T02:54:44.197Z,97
2022-10-14T02:59:11.791Z,97
2022-10-14T03:04:12.533Z,97
2022-10-14T03:09:09.649Z,98
2022-10-14T03:14:09.808Z,98
2022-10-14T03:19:08.598Z,98
2022-10-14T03:24:08.317Z,98
2022-10-14T03:29:06.375Z,98
2022-10-14T03:34:06.243Z,98
2022-10-14T03:39:05.888Z,98
2022-10-14T03:44:05.533Z,98
2022-10-14T03:49:04.414Z,98
2022-10-14T03:54:04.029Z,99
2022-10-14T03:58:49.592Z,99
2022-10-14T04:03:49.051Z,99
2022-10-14T04:08:49.725Z,99
2022-10-14T04:13:47.036Z,99
2022-10-14T04:18:46.837Z,99
2022-10-14T04:23:46.479Z,99
2022-10-14T04:28:46.309Z,98
2022-10-14T04:33:45.013Z,98
2022-10-14T04:38:45.123Z,98
2022-10-14T04:43:44.257Z,98
2022-10-14T04:48:44.759Z,98
2022-10-14T04:53:42.215Z,99
2022-10-14T04:58:41.793Z,99
2022-10-14T05:03:40.755Z,99
2022-10-14T05:08:40.140Z,99
2022-10-14T05:13:38.628Z,99
2022-10-14T05:18:38.233Z,99
2022-10-14T05:23:38.042Z,99
2022-10-14T05:28:37.642Z,99
2022-10-14T05:33:36.572Z,99
2022-10-14T05:38:36.307Z,99
2022-10-14T05:43:35.860Z,99
2022-10-14T05:48:35.524Z,99
2022-10-14T05:53:35.949Z,99
2022-10-14T05:58:33.113Z,99
2022-10-14T05:59:53.963Z,99
2022-10-14T06:04:53.474Z,99
2022-10-14T06:09:52.691Z,99
2022-10-14T06:14:52.317Z,99
2022-10-14T06:19:52.003Z,99
2022-10-14T06:24:51.721Z,99
2022-10-14T06:29:52.457Z,100
2022-10-14T06:34:49.378Z,100
2022-10-14T06:39:49.160Z,99
2022-10-14T06:44:49.419Z,100
2022-10-14T06:49:49.002Z,100
2022-10-14T06:54:49.263Z,99
2022-10-14T06:58:57.119Z,99
2022-10-14T07:03:57.572Z,99
2022-10-14T07:08:56.865Z,99
2022-10-14T07:13:56.183Z,99
2022-10-14T07:18:55.372Z,99
2022-10-14T07:23:55.620Z,99
2022-10-14T07:28:54.957Z,98
2022-10-14T07:33:55.563Z,98
2022-10-14T07:38:52.603Z,98
2022-10-14T07:43:52.749Z,97
2022-10-14T07:48:58.215Z,96
2022-10-14T07:53:51.826Z,96
2022-10-14T07:58:50.775Z,95
2022-10-14T08:03:50.868Z,93
2022-10-14T08:08:49.701Z,92
2022-10-14T08:13:50.893Z,91
2022-10-14T08:18:47.775Z,90
2022-10-14T08:23:47.860Z,90
2022-10-14T08:28:47.854Z,89
2022-10-14T08:33:47.440Z,88
2022-10-14T08:38:45.828Z,88
2022-10-14T08:43:45.378Z,88
2022-10-14T08:48:45.203Z,88
2022-10-14T08:53:44.875Z,86
2022-10-14T08:58:43.910Z,84
2022-10-14T09:03:44.194Z,82
2022-10-14T09:08:43.382Z,82
2022-10-14T09:13:43.081Z,82
2022-10-14T09:18:40.848Z,81
2022-10-14T09:23:40.703Z,81
2022-10-14T09:28:40.759Z,80
2022-10-14T09:33:43.139Z,79
2022-10-14T09:38:38.872Z,78
2022-10-14T09:48:37.455Z,78
2022-10-14T09:53:37.456Z,77
2022-10-14T09:58:35.346Z,78
2022-10-14T09:59:56.517Z,79
2022-10-14T10:04:56.392Z,77
2022-10-14T10:09:55.989Z,76
2022-10-14T10:14:55.160Z,77
2022-10-14T10:19:54.417Z,78
2022-10-14T10:24:54.723Z,80
2022-10-14T10:29:53.640Z,82
2022-10-14T10:34:54.558Z,85
2022-10-14T10:39:52.136Z,86
2022-10-14T10:44:51.543Z,88
2022-10-14T10:49:51.321Z,89
2022-10-14T10:54:50.322Z,89
2022-10-14T10:59:12.177Z,89
2022-10-14T11:04:12.311Z,90
2022-10-14T11:09:11.110Z,90
2022-10-14T11:14:12.008Z,91
2022-10-14T11:19:14.554Z,91
2022-10-14T11:24:08.892Z,90
2022-10-14T11:29:08.017Z,88
2022-10-14T11:34:07.641Z,88
2022-10-14T11:39:06.035Z,86
2022-10-14T11:44:05.690Z,85
2022-10-14T11:49:05.939Z,84
2022-10-14T11:54:05.270Z,83
2022-10-14T11:58:52.152Z,84
2022-10-14T12:03:51.970Z,83
2022-10-14T12:08:51.713Z,84
2022-10-14T12:13:51.009Z,83
2022-10-14T12:18:51.744Z,83
2022-10-14T12:23:48.687Z,82
2022-10-14T12:28:48.589Z,82
2022-10-14T12:33:47.613Z,83
2022-10-14T12:38:47.053Z,83
2022-10-14T12:43:52.274Z,83
2022-10-14T12:48:46.250Z,83
2022-10-14T12:53:45.163Z,84
2022-10-14T12:58:46.054Z,83
2022-10-14T13:03:42.591Z,82
2022-10-14T13:08:42.410Z,82
2022-10-14T13:13:42.576Z,82
2022-10-14T13:18:42.329Z,81
2022-10-14T13:23:40.367Z,81
2022-10-14T13:28:40.362Z,81
2022-10-14T13:33:40.726Z,81
2022-10-14T13:38:39.628Z,81
2022-10-14T13:43:39.061Z,84
2022-10-14T13:48:38.018Z,87
2022-10-14T13:53:37.947Z,89
2022-10-14T13:58:36.981Z,91
2022-10-14T14:03:37.994Z,92
2022-10-14T14:08:42.328Z,93
2022-10-14T14:13:34.945Z,94
2022-10-14T14:19:03.715Z,95
2022-10-14T14:23:33.587Z,95
2022-10-14T14:28:33.563Z,95
2022-10-14T14:33:32.787Z,96
2022-10-14T14:38:32.188Z,96
2022-10-14T14:43:39.759Z,96
2022-10-14T14:48:29.778Z,96
2022-10-14T14:53:29.631Z,96
2022-10-14T14:58:28.979Z,96
2022-10-14T14:59:50.715Z,96
2022-10-14T15:04:49.399Z,96
2022-10-14T15:09:48.571Z,96
2022-10-14T15:14:49.001Z,96
2022-10-14T15:19:47.947Z,96
2022-10-14T15:24:47.370Z,96
2022-10-14T15:29:46.751Z,95
2022-10-14T15:34:46.786Z,95
2022-10-14T15:39:46.006Z,95
2022-10-14T15:44:44.028Z,95
2022-10-14T15:49:43.616Z,94
2022-10-14T15:54:43.897Z,94
2022-10-14T15:59:11.147Z,94
2022-10-14T16:04:10.535Z,93
2022-10-14T16:09:09.781Z,93
2022-10-14T16:14:09.948Z,94
2022-10-14T16:19:08.770Z,94
2022-10-14T16:24:09.544Z,94
2022-10-14T16:29:06.641Z,94
2022-10-14T16:34:06.822Z,94
2022-10-14T16:39:05.727Z,94
2022-10-14T16:44:05.321Z,94
2022-10-14T16:49:03.572Z,94
2022-10-14T16:54:03.352Z,93
2022-10-14T16:58:50.409Z,93
2022-10-14T17:03:49.943Z,93
2022-10-14T17:08:49.003Z,93
2022-10-14T17:13:48.771Z,93
2022-10-14T17:18:49.502Z,94
2022-10-14T17:23:48.825Z,94
2022-10-14T17:28:47.095Z,94
2022-10-14T17:33:47.196Z,94
2022-10-14T17:38:46.543Z,94
2022-10-14T17:43:46.115Z,94
2022-10-14T17:48:45.136Z,94
2022-10-14T17:53:44.861Z,93
2022-10-14T17:58:44.623Z,92
2022-10-14T18:03:44.041Z,90
2022-10-14T18:08:44.914Z,90
2022-10-14T18:13:50.846Z,90
2022-10-14T18:18:42.233Z,91
2022-10-14T18:23:43.052Z,91
2022-10-14T18:28:40.611Z,91
2022-10-14T18:33:40.494Z,91
2022-10-14T18:38:39.473Z,91
2022-10-14T18:43:38.965Z,91
2022-10-14T18:48:38.166Z,92
2022-10-14T18:53:38.380Z,92
2022-10-14T18:58:37.279Z,93
2022-10-14T18:59:58.551Z,93
2022-10-14T19:04:58.140Z,93
2022-10-14T19:09:58.656Z,93
2022-10-14T19:14:57.609Z,93
2022-10-14T19:19:56.603Z,94
2022-10-14T19:24:56.159Z,94
2022-10-14T19:29:55.836Z,94
2022-10-14T19:34:55.367Z,95
2022-10-14T19:39:55.994Z,95
2022-10-14T19:44:53.177Z,95
2022-10-14T19:49:53.387Z,95
2022-10-14T19:54:52.926Z,96
2022-10-14T19:58:55.775Z,96
2022-10-14T20:03:54.476Z,96
2022-10-14T20:08:53.889Z,96
2022-10-14T20:13:53.914Z,96
2022-10-14T20:18:53.065Z,97
2022-10-14T20:23:52.483Z,97
2022-10-14T20:28:52.067Z,97
2022-10-14T20:33:51.955Z,97
2022-10-14T20:38:51.873Z,97
2022-10-14T20:43:49.968Z,98
2022-10-14T20:48:50.066Z,98
2022-10-14T20:53:49.687Z,98
2022-10-14T20:58:49.135Z,98
2022-10-14T21:03:48.638Z,98
2022-10-14T21:08:48.284Z,98
2022-10-14T21:13:48.157Z,98
2022-10-14T21:18:47.251Z,99
2022-10-14T21:23:48.299Z,99
2022-10-14T21:28:45.375Z,99
2022-10-14T21:33:45.066Z,99
2022-10-14T21:38:44.423Z,99
2022-10-14T21:43:43.849Z,99
2022-10-14T21:48:42.506Z,99
2022-10-14T21:53:41.776Z,99
2022-10-14T21:58:41.852Z,99
2022-10-14T22:03:41.110Z,99
2022-10-14T22:08:39.903Z,100
2022-10-14T22:13:39.678Z,100
2022-10-14T22:18:38.960Z,100
2022-10-14T22:23:38.582Z,100
2022-10-14T22:28:37.038Z,100
2022-10-14T22:33:36.760Z,100
2022-10-14T22:38:36.814Z,100
2022-10-14T22:43:36.533Z,100
2022-10-14T22:48:35.332Z,100
2022-10-14T22:53:35.001Z,100
2022-10-14T22:58:34.883Z,100
2022-10-14T22:59:56.353Z,99
2022-10-14T23:04:57.227Z,99
2022-10-14T23:09:54.214Z,99
2022-10-14T23:14:54.081Z,99
2022-10-14T23:19:53.330Z,99
2022-10-14T23:24:52.966Z,99
2022-10-14T23:29:51.254Z,99
2022-10-14T23:34:51.265Z,99
2022-10-14T23:39:51.024Z,99
2022-10-14T23:44:50.642Z,99
2022-10-14T23:49:49.557Z,99
2022-10-14T23:54:50.078Z,99
2022-10-14T23:59:14.002Z,99
